sensor_id;sensor_type;location;lat;lon;timestamp;P1;durP1;ratioP1;P2;durP2;ratioP2
14052;SDS011;7101;51.600;7.310;2023-01-09T00:00:45;2.75;;;1.40;;
14052;SDS011;7101;51.600;7.310;2023-01-09T00:03:13;2.08;;;1.42;;
14052;SDS011;7101;51.600;7.310;2023-01-09T00:05:40;3.47;;;1.60;;
14052;SDS011;7101;51.600;7.310;2023-01-09T00:08:06;7.70;;;1.75;;
14052;SDS011;7101;51.600;7.310;2023-01-09T00:10:34;3.80;;;1.42;;
14052;SDS011;7101;51.600;7.310;2023-01-09T00:13:01;2.75;;;1.52;;
14052;SDS011;7101;51.600;7.310;2023-01-09T00:15:28;3.20;;;1.63;;
14052;SDS011;7101;51.600;7.310;2023-01-09T00:17:57;2.20;;;1.50;;
14052;SDS011;7101;51.600;7.310;2023-01-09T00:20:24;1.98;;;1.52;;
14052;SDS011;7101;51.600;7.310;2023-01-09T00:22:52;2.67;;;1.35;;
14052;SDS011;7101;51.600;7.310;2023-01-09T00:25:19;2.92;;;1.20;;
14052;SDS011;7101;51.600;7.310;2023-01-09T00:27:47;3.15;;;1.63;;
14052;SDS011;7101;51.600;7.310;2023-01-09T00:30:14;4.72;;;1.83;;
14052;SDS011;7101;51.600;7.310;2023-01-09T00:32:41;2.25;;;1.42;;
14052;SDS011;7101;51.600;7.310;2023-01-09T00:35:10;2.20;;;1.40;;
14052;SDS011;7101;51.600;7.310;2023-01-09T00:37:40;1.67;;;1.30;;
14052;SDS011;7101;51.600;7.310;2023-01-09T00:40:08;1.92;;;1.20;;
14052;SDS011;7101;51.600;7.310;2023-01-09T00:42:36;1.80;;;1.30;;
14052;SDS011;7101;51.600;7.310;2023-01-09T00:45:04;1.50;;;1.00;;
14052;SDS011;7101;51.600;7.310;2023-01-09T00:47:37;1.27;;;0.88;;
14052;SDS011;7101;51.600;7.310;2023-01-09T00:50:11;3.47;;;1.10;;
14052;SDS011;7101;51.600;7.310;2023-01-09T00:52:41;1.10;;;1.00;;
14052;SDS011;7101;51.600;7.310;2023-01-09T00:55:09;3.08;;;0.98;;
14052;SDS011;7101;51.600;7.310;2023-01-09T00:57:36;1.63;;;1.10;;
14052;SDS011;7101;51.600;7.310;2023-01-09T01:00:04;1.40;;;0.93;;
14052;SDS011;7101;51.600;7.310;2023-01-09T01:02:33;2.20;;;1.00;;
14052;SDS011;7101;51.600;7.310;2023-01-09T01:05:01;1.98;;;1.20;;
14052;SDS011;7101;51.600;7.310;2023-01-09T01:07:47;1.55;;;1.10;;
14052;SDS011;7101;51.600;7.310;2023-01-09T01:10:15;1.95;;;1.00;;
14052;SDS011;7101;51.600;7.310;2023-01-09T01:12:45;1.40;;;1.08;;
14052;SDS011;7101;51.600;7.310;2023-01-09T01:15:14;2.03;;;0.98;;
14052;SDS011;7101;51.600;7.310;2023-01-09T01:17:47;3.92;;;1.00;;
14052;SDS011;7101;51.600;7.310;2023-01-09T01:20:17;1.20;;;1.00;;
14052;SDS011;7101;51.600;7.310;2023-01-09T01:22:44;1.92;;;1.05;;
14052;SDS011;7101;51.600;7.310;2023-01-09T01:25:15;0.95;;;0.80;;
14052;SDS011;7101;51.600;7.310;2023-01-09T01:27:43;1.05;;;0.80;;
14052;SDS011;7101;51.600;7.310;2023-01-09T01:30:11;1.13;;;0.90;;
14052;SDS011;7101;51.600;7.310;2023-01-09T01:32:41;1.40;;;0.90;;
14052;SDS011;7101;51.600;7.310;2023-01-09T01:35:09;2.17;;;1.00;;
14052;SDS011;7101;51.600;7.310;2023-01-09T01:37:37;0.85;;;0.70;;
14052;SDS011;7101;51.600;7.310;2023-01-09T01:40:06;0.75;;;0.60;;
14052;SDS011;7101;51.600;7.310;2023-01-09T01:42:36;1.42;;;0.98;;
14052;SDS011;7101;51.600;7.310;2023-01-09T01:45:12;1.20;;;0.88;;
14052;SDS011;7101;51.600;7.310;2023-01-09T01:47:41;1.42;;;0.98;;
14052;SDS011;7101;51.600;7.310;2023-01-09T01:50:20;1.85;;;0.90;;
14052;SDS011;7101;51.600;7.310;2023-01-09T01:52:53;1.50;;;1.00;;
14052;SDS011;7101;51.600;7.310;2023-01-09T01:55:22;1.52;;;1.00;;
14052;SDS011;7101;51.600;7.310;2023-01-09T01:57:52;1.73;;;1.00;;
14052;SDS011;7101;51.600;7.310;2023-01-09T02:00:24;2.40;;;0.90;;
14052;SDS011;7101;51.600;7.310;2023-01-09T02:02:56;1.38;;;0.90;;
14052;SDS011;7101;51.600;7.310;2023-01-09T02:05:24;2.40;;;1.00;;
14052;SDS011;7101;51.600;7.310;2023-01-09T02:07:53;1.20;;;0.80;;
14052;SDS011;7101;51.600;7.310;2023-01-09T02:10:19;1.85;;;0.82;;
14052;SDS011;7101;51.600;7.310;2023-01-09T02:12:51;1.35;;;0.80;;
14052;SDS011;7101;51.600;7.310;2023-01-09T02:15:17;0.98;;;0.77;;
14052;SDS011;7101;51.600;7.310;2023-01-09T02:18:05;1.20;;;0.73;;
14052;SDS011;7101;51.600;7.310;2023-01-09T02:20:58;0.75;;;0.60;;
14052;SDS011;7101;51.600;7.310;2023-01-09T02:26:35;1.65;;;0.90;;
14052;SDS011;7101;51.600;7.310;2023-01-09T02:32:47;0.80;;;0.70;;
14052;SDS011;7101;51.600;7.310;2023-01-09T02:35:32;1.92;;;1.00;;
14052;SDS011;7101;51.600;7.310;2023-01-09T02:38:13;2.20;;;1.00;;
14052;SDS011;7101;51.600;7.310;2023-01-09T02:40:52;0.93;;;0.70;;
14052;SDS011;7101;51.600;7.310;2023-01-09T02:43:31;0.82;;;0.70;;
14052;SDS011;7101;51.600;7.310;2023-01-09T02:45:58;3.38;;;0.88;;
14052;SDS011;7101;51.600;7.310;2023-01-09T02:48:34;3.15;;;0.95;;
14052;SDS011;7101;51.600;7.310;2023-01-09T02:56:52;1.08;;;0.70;;
14052;SDS011;7101;51.600;7.310;2023-01-09T02:59:39;1.75;;;0.70;;
14052;SDS011;7101;51.600;7.310;2023-01-09T03:02:32;2.45;;;0.95;;
14052;SDS011;7101;51.600;7.310;2023-01-09T03:05:10;1.58;;;0.80;;
14052;SDS011;7101;51.600;7.310;2023-01-09T03:07:44;1.88;;;1.08;;
14052;SDS011;7101;51.600;7.310;2023-01-09T03:10:19;2.78;;;0.88;;
14052;SDS011;7101;51.600;7.310;2023-01-09T03:12:49;3.45;;;1.30;;
14052;SDS011;7101;51.600;7.310;2023-01-09T03:15:19;1.95;;;0.90;;
14052;SDS011;7101;51.600;7.310;2023-01-09T03:17:49;5.38;;;1.50;;
14052;SDS011;7101;51.600;7.310;2023-01-09T03:20:20;2.38;;;1.23;;
14052;SDS011;7101;51.600;7.310;2023-01-09T03:22:52;2.42;;;1.10;;
14052;SDS011;7101;51.600;7.310;2023-01-09T03:25:20;3.65;;;1.10;;
14052;SDS011;7101;51.600;7.310;2023-01-09T03:27:48;1.77;;;1.17;;
14052;SDS011;7101;51.600;7.310;2023-01-09T03:30:20;2.88;;;1.35;;
14052;SDS011;7101;51.600;7.310;2023-01-09T03:32:47;3.85;;;1.50;;
14052;SDS011;7101;51.600;7.310;2023-01-09T03:35:14;5.40;;;1.45;;
14052;SDS011;7101;51.600;7.310;2023-01-09T03:37:42;4.47;;;1.20;;
14052;SDS011;7101;51.600;7.310;2023-01-09T03:40:09;1.10;;;1.00;;
14052;SDS011;7101;51.600;7.310;2023-01-09T03:42:36;4.18;;;1.00;;
14052;SDS011;7101;51.600;7.310;2023-01-09T03:45:04;3.38;;;1.38;;
14052;SDS011;7101;51.600;7.310;2023-01-09T03:47:33;2.92;;;1.60;;
14052;SDS011;7101;51.600;7.310;2023-01-09T03:50:01;2.90;;;1.48;;
14052;SDS011;7101;51.600;7.310;2023-01-09T03:52:28;3.47;;;1.75;;
14052;SDS011;7101;51.600;7.310;2023-01-09T03:54:58;4.05;;;1.80;;
14052;SDS011;7101;51.600;7.310;2023-01-09T03:57:26;2.60;;;1.77;;
14052;SDS011;7101;51.600;7.310;2023-01-09T03:59:53;4.38;;;2.00;;
14052;SDS011;7101;51.600;7.310;2023-01-09T04:02:21;3.63;;;2.15;;
14052;SDS011;7101;51.600;7.310;2023-01-09T04:04:49;2.95;;;1.63;;
14052;SDS011;7101;51.600;7.310;2023-01-09T04:07:16;7.03;;;2.00;;
14052;SDS011;7101;51.600;7.310;2023-01-09T04:09:42;4.47;;;2.10;;
14052;SDS011;7101;51.600;7.310;2023-01-09T04:12:11;5.55;;;2.10;;
14052;SDS011;7101;51.600;7.310;2023-01-09T04:14:38;5.85;;;2.30;;
14052;SDS011;7101;51.600;7.310;2023-01-09T04:17:05;6.07;;;2.30;;
14052;SDS011;7101;51.600;7.310;2023-01-09T04:19:32;5.10;;;2.10;;
14052;SDS011;7101;51.600;7.310;2023-01-09T04:21:58;3.22;;;2.03;;
14052;SDS011;7101;51.600;7.310;2023-01-09T04:24:31;7.13;;;2.10;;
14052;SDS011;7101;51.600;7.310;2023-01-09T04:26:58;8.40;;;2.63;;
14052;SDS011;7101;51.600;7.310;2023-01-09T04:29:27;5.93;;;2.10;;
14052;SDS011;7101;51.600;7.310;2023-01-09T04:31:55;6.85;;;2.33;;
14052;SDS011;7101;51.600;7.310;2023-01-09T04:34:21;2.97;;;2.00;;
14052;SDS011;7101;51.600;7.310;2023-01-09T04:36:50;7.32;;;2.58;;
14052;SDS011;7101;51.600;7.310;2023-01-09T04:39:18;4.40;;;2.10;;
14052;SDS011;7101;51.600;7.310;2023-01-09T04:41:45;3.22;;;1.80;;
14052;SDS011;7101;51.600;7.310;2023-01-09T04:44:22;6.70;;;2.08;;
14052;SDS011;7101;51.600;7.310;2023-01-09T04:46:52;4.85;;;2.03;;
14052;SDS011;7101;51.600;7.310;2023-01-09T04:49:21;5.50;;;1.90;;
14052;SDS011;7101;51.600;7.310;2023-01-09T04:54:25;5.43;;;1.98;;
14052;SDS011;7101;51.600;7.310;2023-01-09T04:56:53;5.85;;;1.85;;
14052;SDS011;7101;51.600;7.310;2023-01-09T04:59:21;7.07;;;1.73;;
14052;SDS011;7101;51.600;7.310;2023-01-09T05:01:50;4.05;;;1.83;;
14052;SDS011;7101;51.600;7.310;2023-01-09T05:04:20;6.13;;;2.00;;
14052;SDS011;7101;51.600;7.310;2023-01-09T05:06:47;3.92;;;1.60;;
14052;SDS011;7101;51.600;7.310;2023-01-09T05:11:44;5.70;;;1.80;;
14052;SDS011;7101;51.600;7.310;2023-01-09T05:14:11;7.72;;;2.13;;
14052;SDS011;7101;51.600;7.310;2023-01-09T05:16:39;5.55;;;1.73;;
14052;SDS011;7101;51.600;7.310;2023-01-09T05:19:05;6.70;;;1.67;;
14052;SDS011;7101;51.600;7.310;2023-01-09T05:21:35;8.75;;;2.10;;
14052;SDS011;7101;51.600;7.310;2023-01-09T05:24:02;5.07;;;1.65;;
14052;SDS011;7101;51.600;7.310;2023-01-09T05:26:30;7.93;;;1.65;;
14052;SDS011;7101;51.600;7.310;2023-01-09T05:28:57;4.38;;;1.50;;
14052;SDS011;7101;51.600;7.310;2023-01-09T05:31:29;3.70;;;1.50;;
14052;SDS011;7101;51.600;7.310;2023-01-09T05:33:57;5.95;;;1.63;;
14052;SDS011;7101;51.600;7.310;2023-01-09T05:36:24;6.60;;;1.85;;
14052;SDS011;7101;51.600;7.310;2023-01-09T05:38:55;7.60;;;1.60;;
14052;SDS011;7101;51.600;7.310;2023-01-09T05:41:22;7.35;;;2.13;;
14052;SDS011;7101;51.600;7.310;2023-01-09T05:43:50;4.20;;;1.48;;
14052;SDS011;7101;51.600;7.310;2023-01-09T05:46:17;8.35;;;1.52;;
14052;SDS011;7101;51.600;7.310;2023-01-09T05:48:43;5.30;;;1.15;;
14052;SDS011;7101;51.600;7.310;2023-01-09T05:51:10;5.13;;;1.65;;
14052;SDS011;7101;51.600;7.310;2023-01-09T05:53:38;6.15;;;1.55;;
14052;SDS011;7101;51.600;7.310;2023-01-09T05:56:08;3.53;;;1.40;;
14052;SDS011;7101;51.600;7.310;2023-01-09T05:58:34;8.98;;;1.55;;
14052;SDS011;7101;51.600;7.310;2023-01-09T06:01:01;7.05;;;1.70;;
14052;SDS011;7101;51.600;7.310;2023-01-09T06:03:28;4.40;;;1.48;;
14052;SDS011;7101;51.600;7.310;2023-01-09T06:05:55;8.18;;;1.50;;
14052;SDS011;7101;51.600;7.310;2023-01-09T06:08:22;3.47;;;1.15;;
14052;SDS011;7101;51.600;7.310;2023-01-09T06:10:49;7.22;;;1.70;;
14052;SDS011;7101;51.600;7.310;2023-01-09T06:13:19;6.10;;;1.73;;
14052;SDS011;7101;51.600;7.310;2023-01-09T06:15:46;6.53;;;1.50;;
14052;SDS011;7101;51.600;7.310;2023-01-09T06:18:14;7.50;;;1.63;;
14052;SDS011;7101;51.600;7.310;2023-01-09T06:20:42;8.77;;;1.75;;
14052;SDS011;7101;51.600;7.310;2023-01-09T06:23:19;6.20;;;1.58;;
14052;SDS011;7101;51.600;7.310;2023-01-09T06:25:46;2.60;;;1.30;;
14052;SDS011;7101;51.600;7.310;2023-01-09T06:28:13;6.65;;;1.83;;
14052;SDS011;7101;51.600;7.310;2023-01-09T06:30:41;8.18;;;1.70;;
14052;SDS011;7101;51.600;7.310;2023-01-09T06:33:08;4.53;;;1.30;;
14052;SDS011;7101;51.600;7.310;2023-01-09T06:35:35;6.90;;;1.60;;
14052;SDS011;7101;51.600;7.310;2023-01-09T06:38:02;6.60;;;1.90;;
14052;SDS011;7101;51.600;7.310;2023-01-09T06:40:29;7.85;;;1.60;;
14052;SDS011;7101;51.600;7.310;2023-01-09T06:42:58;7.20;;;1.38;;
14052;SDS011;7101;51.600;7.310;2023-01-09T06:45:26;7.65;;;1.48;;
14052;SDS011;7101;51.600;7.310;2023-01-09T06:47:54;5.10;;;1.40;;
14052;SDS011;7101;51.600;7.310;2023-01-09T06:50:26;4.22;;;1.40;;
14052;SDS011;7101;51.600;7.310;2023-01-09T06:52:53;5.25;;;1.50;;
14052;SDS011;7101;51.600;7.310;2023-01-09T06:55:20;5.03;;;1.52;;
14052;SDS011;7101;51.600;7.310;2023-01-09T06:57:47;6.55;;;1.38;;
14052;SDS011;7101;51.600;7.310;2023-01-09T07:00:14;6.65;;;1.40;;
14052;SDS011;7101;51.600;7.310;2023-01-09T07:02:43;6.93;;;1.60;;
14052;SDS011;7101;51.600;7.310;2023-01-09T07:05:12;5.95;;;1.63;;
14052;SDS011;7101;51.600;7.310;2023-01-09T07:07:39;8.00;;;1.90;;
14052;SDS011;7101;51.600;7.310;2023-01-09T07:10:06;5.75;;;1.90;;
14052;SDS011;7101;51.600;7.310;2023-01-09T07:12:34;5.93;;;1.95;;
14052;SDS011;7101;51.600;7.310;2023-01-09T07:15:02;5.43;;;2.00;;
14052;SDS011;7101;51.600;7.310;2023-01-09T07:17:30;9.60;;;1.80;;
14052;SDS011;7101;51.600;7.310;2023-01-09T07:19:57;7.82;;;2.10;;
14052;SDS011;7101;51.600;7.310;2023-01-09T07:22:26;6.90;;;2.00;;
14052;SDS011;7101;51.600;7.310;2023-01-09T07:24:53;9.68;;;1.48;;
14052;SDS011;7101;51.600;7.310;2023-01-09T07:27:22;6.35;;;1.92;;
14052;SDS011;7101;51.600;7.310;2023-01-09T07:29:49;5.72;;;1.85;;
14052;SDS011;7101;51.600;7.310;2023-01-09T07:32:17;5.90;;;1.80;;
14052;SDS011;7101;51.600;7.310;2023-01-09T07:34:44;3.72;;;1.67;;
14052;SDS011;7101;51.600;7.310;2023-01-09T07:37:13;8.13;;;1.85;;
14052;SDS011;7101;51.600;7.310;2023-01-09T07:39:42;8.48;;;2.35;;
14052;SDS011;7101;51.600;7.310;2023-01-09T07:42:09;5.95;;;1.60;;
14052;SDS011;7101;51.600;7.310;2023-01-09T07:44:38;5.72;;;1.77;;
14052;SDS011;7101;51.600;7.310;2023-01-09T07:47:05;11.57;;;1.98;;
14052;SDS011;7101;51.600;7.310;2023-01-09T07:49:32;6.15;;;1.70;;
14052;SDS011;7101;51.600;7.310;2023-01-09T07:52:03;6.97;;;1.83;;
14052;SDS011;7101;51.600;7.310;2023-01-09T07:54:31;8.82;;;1.65;;
14052;SDS011;7101;51.600;7.310;2023-01-09T07:56:59;8.65;;;2.00;;
14052;SDS011;7101;51.600;7.310;2023-01-09T07:59:26;5.00;;;1.65;;
14052;SDS011;7101;51.600;7.310;2023-01-09T08:01:54;7.88;;;1.70;;
14052;SDS011;7101;51.600;7.310;2023-01-09T08:04:22;8.48;;;1.75;;
14052;SDS011;7101;51.600;7.310;2023-01-09T08:06:49;5.05;;;1.65;;
14052;SDS011;7101;51.600;7.310;2023-01-09T08:09:16;4.90;;;1.92;;
14052;SDS011;7101;51.600;7.310;2023-01-09T08:11:44;6.95;;;2.40;;
14052;SDS011;7101;51.600;7.310;2023-01-09T08:14:16;4.20;;;1.67;;
14052;SDS011;7101;51.600;7.310;2023-01-09T08:16:44;5.90;;;1.90;;
14052;SDS011;7101;51.600;7.310;2023-01-09T08:19:12;8.05;;;1.70;;
14052;SDS011;7101;51.600;7.310;2023-01-09T08:21:40;6.03;;;1.70;;
14052;SDS011;7101;51.600;7.310;2023-01-09T08:24:07;4.97;;;1.73;;
14052;SDS011;7101;51.600;7.310;2023-01-09T08:26:35;3.88;;;1.63;;
14052;SDS011;7101;51.600;7.310;2023-01-09T08:29:04;5.22;;;1.73;;
14052;SDS011;7101;51.600;7.310;2023-01-09T08:31:33;7.55;;;1.80;;
14052;SDS011;7101;51.600;7.310;2023-01-09T08:34:01;7.38;;;1.90;;
14052;SDS011;7101;51.600;7.310;2023-01-09T08:36:29;4.85;;;1.65;;
14052;SDS011;7101;51.600;7.310;2023-01-09T08:38:56;5.13;;;1.90;;
14052;SDS011;7101;51.600;7.310;2023-01-09T08:41:23;6.32;;;1.80;;
14052;SDS011;7101;51.600;7.310;2023-01-09T08:44:09;4.40;;;1.27;;
14052;SDS011;7101;51.600;7.310;2023-01-09T08:46:54;8.35;;;2.13;;
14052;SDS011;7101;51.600;7.310;2023-01-09T08:49:31;3.63;;;1.50;;
14052;SDS011;7101;51.600;7.310;2023-01-09T08:52:00;6.40;;;1.70;;
14052;SDS011;7101;51.600;7.310;2023-01-09T08:54:27;5.82;;;1.42;;
14052;SDS011;7101;51.600;7.310;2023-01-09T08:56:54;4.65;;;1.45;;
14052;SDS011;7101;51.600;7.310;2023-01-09T08:59:20;6.75;;;1.67;;
14052;SDS011;7101;51.600;7.310;2023-01-09T09:01:48;5.95;;;1.45;;
14052;SDS011;7101;51.600;7.310;2023-01-09T09:04:17;10.23;;;1.50;;
14052;SDS011;7101;51.600;7.310;2023-01-09T09:06:44;6.07;;;1.42;;
14052;SDS011;7101;51.600;7.310;2023-01-09T09:09:12;4.32;;;1.30;;
14052;SDS011;7101;51.600;7.310;2023-01-09T09:11:39;8.32;;;1.90;;
14052;SDS011;7101;51.600;7.310;2023-01-09T09:14:06;5.53;;;1.73;;
14052;SDS011;7101;51.600;7.310;2023-01-09T09:16:48;4.05;;;1.45;;
14052;SDS011;7101;51.600;7.310;2023-01-09T09:19:16;4.93;;;1.42;;
14052;SDS011;7101;51.600;7.310;2023-01-09T09:21:43;6.32;;;1.30;;
14052;SDS011;7101;51.600;7.310;2023-01-09T09:24:10;3.53;;;1.23;;
14052;SDS011;7101;51.600;7.310;2023-01-09T09:26:37;4.05;;;1.58;;
14052;SDS011;7101;51.600;7.310;2023-01-09T09:29:04;6.05;;;1.92;;
14052;SDS011;7101;51.600;7.310;2023-01-09T09:31:32;5.55;;;1.48;;
14052;SDS011;7101;51.600;7.310;2023-01-09T09:34:00;5.38;;;1.95;;
14052;SDS011;7101;51.600;7.310;2023-01-09T09:36:28;5.85;;;1.80;;
14052;SDS011;7101;51.600;7.310;2023-01-09T09:38:55;8.88;;;1.70;;
14052;SDS011;7101;51.600;7.310;2023-01-09T09:44:24;4.95;;;1.70;;
14052;SDS011;7101;51.600;7.310;2023-01-09T09:47:10;6.25;;;1.50;;
14052;SDS011;7101;51.600;7.310;2023-01-09T09:49:48;5.68;;;1.80;;
14052;SDS011;7101;51.600;7.310;2023-01-09T09:52:29;8.30;;;2.20;;
14052;SDS011;7101;51.600;7.310;2023-01-09T09:55:10;5.25;;;2.20;;
14052;SDS011;7101;51.600;7.310;2023-01-09T09:57:43;6.28;;;1.85;;
14052;SDS011;7101;51.600;7.310;2023-01-09T10:00:14;5.30;;;1.85;;
14052;SDS011;7101;51.600;7.310;2023-01-09T10:02:44;6.97;;;2.22;;
14052;SDS011;7101;51.600;7.310;2023-01-09T10:05:18;4.47;;;1.80;;
14052;SDS011;7101;51.600;7.310;2023-01-09T10:07:51;9.05;;;2.80;;
14052;SDS011;7101;51.600;7.310;2023-01-09T10:10:21;9.32;;;3.00;;
14052;SDS011;7101;51.600;7.310;2023-01-09T10:12:55;4.70;;;2.13;;
14052;SDS011;7101;51.600;7.310;2023-01-09T10:15:34;8.77;;;3.45;;
14052;SDS011;7101;51.600;7.310;2023-01-09T10:18:13;8.90;;;2.35;;
14052;SDS011;7101;51.600;7.310;2023-01-09T10:20:48;7.68;;;2.35;;
14052;SDS011;7101;51.600;7.310;2023-01-09T10:23:35;6.07;;;2.58;;
14052;SDS011;7101;51.600;7.310;2023-01-09T10:26:17;9.52;;;2.28;;
14052;SDS011;7101;51.600;7.310;2023-01-09T10:28:58;7.60;;;2.17;;
14052;SDS011;7101;51.600;7.310;2023-01-09T10:31:47;8.32;;;1.85;;
14052;SDS011;7101;51.600;7.310;2023-01-09T10:34:26;8.90;;;1.75;;
14052;SDS011;7101;51.600;7.310;2023-01-09T10:37:06;8.95;;;1.63;;
14052;SDS011;7101;51.600;7.310;2023-01-09T10:39:38;5.55;;;1.85;;
14052;SDS011;7101;51.600;7.310;2023-01-09T10:42:10;7.43;;;4.03;;
14052;SDS011;7101;51.600;7.310;2023-01-09T10:44:47;5.03;;;1.65;;
14052;SDS011;7101;51.600;7.310;2023-01-09T10:47:20;6.45;;;1.70;;
14052;SDS011;7101;51.600;7.310;2023-01-09T10:49:50;6.00;;;1.50;;
14052;SDS011;7101;51.600;7.310;2023-01-09T10:52:18;6.18;;;1.90;;
14052;SDS011;7101;51.600;7.310;2023-01-09T10:54:50;4.60;;;1.83;;
14052;SDS011;7101;51.600;7.310;2023-01-09T10:57:33;5.93;;;1.65;;
14052;SDS011;7101;51.600;7.310;2023-01-09T11:00:06;6.07;;;1.70;;
14052;SDS011;7101;51.600;7.310;2023-01-09T11:02:40;6.38;;;2.08;;
14052;SDS011;7101;51.600;7.310;2023-01-09T11:05:09;6.97;;;1.88;;
14052;SDS011;7101;51.600;7.310;2023-01-09T11:07:38;4.60;;;1.85;;
14052;SDS011;7101;51.600;7.310;2023-01-09T11:10:11;5.78;;;1.90;;
14052;SDS011;7101;51.600;7.310;2023-01-09T11:12:45;4.95;;;1.60;;
14052;SDS011;7101;51.600;7.310;2023-01-09T11:15:24;7.20;;;2.40;;
14052;SDS011;7101;51.600;7.310;2023-01-09T11:20:43;8.55;;;2.30;;
14052;SDS011;7101;51.600;7.310;2023-01-09T11:23:29;8.15;;;2.38;;
14052;SDS011;7101;51.600;7.310;2023-01-09T11:26:01;5.28;;;1.80;;
14052;SDS011;7101;51.600;7.310;2023-01-09T11:28:30;6.97;;;1.65;;
14052;SDS011;7101;51.600;7.310;2023-01-09T11:30:59;8.63;;;1.75;;
14052;SDS011;7101;51.600;7.310;2023-01-09T11:33:28;5.05;;;1.63;;
14052;SDS011;7101;51.600;7.310;2023-01-09T11:36:03;4.45;;;1.52;;
14052;SDS011;7101;51.600;7.310;2023-01-09T11:38:46;3.25;;;1.40;;
14052;SDS011;7101;51.600;7.310;2023-01-09T11:41:18;6.30;;;1.92;;
14052;SDS011;7101;51.600;7.310;2023-01-09T11:43:54;5.80;;;1.70;;
14052;SDS011;7101;51.600;7.310;2023-01-09T11:46:30;4.75;;;1.60;;
14052;SDS011;7101;51.600;7.310;2023-01-09T11:49:01;7.78;;;2.13;;
14052;SDS011;7101;51.600;7.310;2023-01-09T11:51:35;4.63;;;1.42;;
14052;SDS011;7101;51.600;7.310;2023-01-09T11:54:06;6.32;;;1.92;;
14052;SDS011;7101;51.600;7.310;2023-01-09T11:56:46;5.28;;;1.60;;
14052;SDS011;7101;51.600;7.310;2023-01-09T11:59:14;6.25;;;1.90;;
14052;SDS011;7101;51.600;7.310;2023-01-09T12:07:34;3.53;;;1.40;;
14052;SDS011;7101;51.600;7.310;2023-01-09T12:10:31;5.28;;;1.90;;
14052;SDS011;7101;51.600;7.310;2023-01-09T12:13:12;5.70;;;1.45;;
14052;SDS011;7101;51.600;7.310;2023-01-09T12:15:53;7.53;;;1.95;;
14052;SDS011;7101;51.600;7.310;2023-01-09T12:18:35;5.40;;;1.73;;
14052;SDS011;7101;51.600;7.310;2023-01-09T12:21:15;4.68;;;1.77;;
14052;SDS011;7101;51.600;7.310;2023-01-09T12:23:59;8.80;;;2.10;;
14052;SDS011;7101;51.600;7.310;2023-01-09T12:26:41;6.22;;;1.80;;
14052;SDS011;7101;51.600;7.310;2023-01-09T12:29:28;5.10;;;1.83;;
14052;SDS011;7101;51.600;7.310;2023-01-09T12:32:12;7.63;;;1.70;;
14052;SDS011;7101;51.600;7.310;2023-01-09T12:34:54;5.18;;;1.85;;
14052;SDS011;7101;51.600;7.310;2023-01-09T12:37:46;6.53;;;2.65;;
14052;SDS011;7101;51.600;7.310;2023-01-09T12:40:25;5.97;;;1.73;;
14052;SDS011;7101;51.600;7.310;2023-01-09T12:43:21;6.10;;;2.60;;
14052;SDS011;7101;51.600;7.310;2023-01-09T12:46:05;7.15;;;2.15;;
14052;SDS011;7101;51.600;7.310;2023-01-09T12:48:42;6.97;;;2.05;;
14052;SDS011;7101;51.600;7.310;2023-01-09T12:51:27;4.20;;;2.28;;
14052;SDS011;7101;51.600;7.310;2023-01-09T12:54:00;6.47;;;2.05;;
14052;SDS011;7101;51.600;7.310;2023-01-09T12:56:35;11.73;;;6.30;;
14052;SDS011;7101;51.600;7.310;2023-01-09T12:59:08;4.18;;;2.10;;
14052;SDS011;7101;51.600;7.310;2023-01-09T13:01:59;7.10;;;2.00;;
14052;SDS011;7101;51.600;7.310;2023-01-09T13:04:38;5.07;;;1.85;;
14052;SDS011;7101;51.600;7.310;2023-01-09T13:07:09;4.95;;;1.80;;
14052;SDS011;7101;51.600;7.310;2023-01-09T13:09:42;3.30;;;1.45;;
14052;SDS011;7101;51.600;7.310;2023-01-09T13:12:16;3.67;;;1.60;;
14052;SDS011;7101;51.600;7.310;2023-01-09T13:14:50;4.18;;;1.58;;
14052;SDS011;7101;51.600;7.310;2023-01-09T13:17:24;4.45;;;1.60;;
14052;SDS011;7101;51.600;7.310;2023-01-09T13:19:56;4.13;;;1.50;;
14052;SDS011;7101;51.600;7.310;2023-01-09T13:22:23;4.22;;;1.60;;
14052;SDS011;7101;51.600;7.310;2023-01-09T13:27:47;6.53;;;1.80;;
14052;SDS011;7101;51.600;7.310;2023-01-09T13:30:26;5.70;;;1.83;;
14052;SDS011;7101;51.600;7.310;2023-01-09T13:33:15;6.60;;;3.60;;
14052;SDS011;7101;51.600;7.310;2023-01-09T13:35:47;6.93;;;2.30;;
14052;SDS011;7101;51.600;7.310;2023-01-09T13:38:16;3.65;;;1.88;;
14052;SDS011;7101;51.600;7.310;2023-01-09T13:40:44;4.45;;;2.10;;
14052;SDS011;7101;51.600;7.310;2023-01-09T13:43:12;4.18;;;1.92;;
14052;SDS011;7101;51.600;7.310;2023-01-09T13:45:42;5.88;;;1.98;;
14052;SDS011;7101;51.600;7.310;2023-01-09T13:48:23;5.57;;;2.00;;
14052;SDS011;7101;51.600;7.310;2023-01-09T13:53:55;5.80;;;2.88;;
14052;SDS011;7101;51.600;7.310;2023-01-09T13:56:28;5.97;;;2.08;;
14052;SDS011;7101;51.600;7.310;2023-01-09T13:58:58;5.15;;;2.17;;
14052;SDS011;7101;51.600;7.310;2023-01-09T14:01:49;5.72;;;2.53;;
14052;SDS011;7101;51.600;7.310;2023-01-09T14:04:37;5.25;;;2.70;;
14052;SDS011;7101;51.600;7.310;2023-01-09T14:07:21;6.10;;;2.83;;
14052;SDS011;7101;51.600;7.310;2023-01-09T14:09:51;4.70;;;2.83;;
14052;SDS011;7101;51.600;7.310;2023-01-09T14:12:22;5.70;;;3.08;;
14052;SDS011;7101;51.600;7.310;2023-01-09T14:14:50;9.43;;;3.10;;
14052;SDS011;7101;51.600;7.310;2023-01-09T14:17:24;8.77;;;4.10;;
14052;SDS011;7101;51.600;7.310;2023-01-09T14:19:58;7.55;;;2.65;;
14052;SDS011;7101;51.600;7.310;2023-01-09T14:22:28;5.75;;;2.97;;
14052;SDS011;7101;51.600;7.310;2023-01-09T14:25:03;6.18;;;2.88;;
14052;SDS011;7101;51.600;7.310;2023-01-09T14:28:02;5.53;;;2.70;;
14052;SDS011;7101;51.600;7.310;2023-01-09T14:30:36;7.43;;;3.10;;
14052;SDS011;7101;51.600;7.310;2023-01-09T14:33:23;5.28;;;2.67;;
14052;SDS011;7101;51.600;7.310;2023-01-09T14:35:57;5.82;;;2.97;;
14052;SDS011;7101;51.600;7.310;2023-01-09T14:41:21;6.20;;;2.55;;
14052;SDS011;7101;51.600;7.310;2023-01-09T14:44:05;6.15;;;2.83;;
14052;SDS011;7101;51.600;7.310;2023-01-09T14:46:43;4.70;;;2.78;;
14052;SDS011;7101;51.600;7.310;2023-01-09T14:49:14;9.52;;;3.00;;
14052;SDS011;7101;51.600;7.310;2023-01-09T14:51:48;9.23;;;3.10;;
14052;SDS011;7101;51.600;7.310;2023-01-09T14:54:21;12.52;;;3.15;;
14052;SDS011;7101;51.600;7.310;2023-01-09T14:56:52;8.18;;;3.65;;
14052;SDS011;7101;51.600;7.310;2023-01-09T14:59:19;11.27;;;6.50;;
14052;SDS011;7101;51.600;7.310;2023-01-09T15:01:47;6.90;;;3.65;;
14052;SDS011;7101;51.600;7.310;2023-01-09T15:04:21;7.38;;;4.38;;
14052;SDS011;7101;51.600;7.310;2023-01-09T15:06:53;8.18;;;3.95;;
14052;SDS011;7101;51.600;7.310;2023-01-09T15:09:21;4.97;;;2.88;;
14052;SDS011;7101;51.600;7.310;2023-01-09T15:11:51;3.85;;;2.50;;
14052;SDS011;7101;51.600;7.310;2023-01-09T15:14:25;10.15;;;2.90;;
14052;SDS011;7101;51.600;7.310;2023-01-09T15:16:56;5.40;;;3.00;;
14052;SDS011;7101;51.600;7.310;2023-01-09T15:19:25;12.90;;;4.97;;
14052;SDS011;7101;51.600;7.310;2023-01-09T15:21:59;8.38;;;4.55;;
14052;SDS011;7101;51.600;7.310;2023-01-09T15:24:28;13.88;;;8.95;;
14052;SDS011;7101;51.600;7.310;2023-01-09T15:26:57;11.88;;;4.47;;
14052;SDS011;7101;51.600;7.310;2023-01-09T15:29:27;6.30;;;3.30;;
14052;SDS011;7101;51.600;7.310;2023-01-09T15:31:56;9.98;;;3.75;;
14052;SDS011;7101;51.600;7.310;2023-01-09T15:34:33;6.85;;;3.55;;
14052;SDS011;7101;51.600;7.310;2023-01-09T15:37:02;5.90;;;3.55;;
14052;SDS011;7101;51.600;7.310;2023-01-09T15:39:31;6.72;;;3.55;;
14052;SDS011;7101;51.600;7.310;2023-01-09T15:45:03;7.03;;;3.90;;
14052;SDS011;7101;51.600;7.310;2023-01-09T15:47:34;5.90;;;3.83;;
14052;SDS011;7101;51.600;7.310;2023-01-09T15:50:03;9.25;;;4.78;;
14052;SDS011;7101;51.600;7.310;2023-01-09T15:52:32;8.77;;;4.80;;
14052;SDS011;7101;51.600;7.310;2023-01-09T15:54:59;9.50;;;6.13;;
14052;SDS011;7101;51.600;7.310;2023-01-09T15:57:28;9.77;;;5.65;;
14052;SDS011;7101;51.600;7.310;2023-01-09T16:03:17;8.40;;;4.93;;
14052;SDS011;7101;51.600;7.310;2023-01-09T16:05:48;7.45;;;4.38;;
14052;SDS011;7101;51.600;7.310;2023-01-09T16:08:26;9.20;;;4.72;;
14052;SDS011;7101;51.600;7.310;2023-01-09T16:10:57;31.88;;;19.13;;